Alamance, NC

10:35 AM EDT on October 25, 2014 (GMT -0400)
Central Alamance County | Change Station
CLOSE
Current Station
Personal Weather Station
Location: Graham, NC
Elevation: 564 ft
Nearby Weather Stations

Elev 564 ft 36.04 °N, 79.41 °W | Updated 8 minutes ago

Clear
Clear
59.4 °F
Feels Like 59.4 °F
N
1.7
Wind Variable Wind from West

Today
High -- | Low -- °F
--% Chance of Precip.
Yesterday
High -- | Low -- °F
Precip. -- in
7:33 AM 6:29 PM
Waxing Crescent, 3% visible
Pressure 30.04 in
Visibility 10.0 miles
Clouds Clear
Dew Point 42 °F
Humidity 53%
Rainfall 0.00 in
Snow Depth Not available.
UV 2 out of 12
Pollen 2.20 out of 12
Ozone Good
PM2.5 Good
Flu Activity Local Activity
METAR KBUY 251354Z AUTO 33005KT 10SM CLR 14/05 A3004 RMK AO2 SLP172 T01390050

More Conditions Fewer Conditions

Pressure 30.04 in
Visibility 10.0 miles
Clouds Clear
Dew Point 42 °F
Humidity 53%
Rainfall 0.00 in
Snow Depth Not available.
UV 2 out of 12
Pollen 2.20 out of 12
Ozone Good
PM2.5 Good
Flu Activity Local Activity
METAR KBUY 251354Z AUTO 33005KT 10SM CLR 14/05 A3004 RMK AO2 SLP172 T01390050

More Conditions Fewer Conditions

10-Day Weather Forecast

Almanac

Astronomy

Oct. 25, 2014 Rise Set
Actual Time 7:33 AM EDT 6:29 PM EDT
Civil Twilight 7:07 AM EDT 6:55 PM EDT
Nautical Twilight 6:37 AM EDT 7:25 PM EDT
Astronomical Twilight 6:07 AM EDT 7:55 PM EDT
Moon 9:08 AM EDT 7:54 PM EDT
Length of Visible Light 11h 48m
Length of Day
10h 55m
Tomorrow will be 2m 6s shorter.
Waxing Crescent, 3% of the Moon is Illuminated
Today
Waxing Crescent
Oct 30
First Quarter
Nov 6
Full
Nov 14
Last Quarter
Nov 22
New

Today's Extremes

State Highs State Lows

Community

WunderPhotos

Upload Photos

1,764,852 photos uploaded!

Nearby

Air Quality

  Air Quality AQ Index Pollutant
Yesterday Good
OZONE
Yesterday Good
PM2.5
Current Good
PM2.5
Current Good
OZONE
Saturday Good
OZONE
Saturday Good
PM2.5
Sunday Good
PM2.5
Sunday Good
OZONE
Monday Good
PM2.5
Monday Good
OZONE
Tuesday Good
PM2.5
Tuesday Good
OZONE

Snow Depth

Station Depth Elevation
No new snow has been reported.

Earthquake Activity

City Distance Mag. Time & Date
No recent earthquake activity has been reported nearby.
Minimum magnitude displayed is 2.5.

Coastal Water Temperatures

Place Temperature
No Stations Reporting

Nearby Weather Stations